createdAt,value
2019-03-20T00:01:25.039Z,102909.94
2019-03-20T00:03:56.478Z,102906.91
2019-03-20T00:06:27.960Z,102902.13
2019-03-20T00:09:00.122Z,102916.17
2019-03-20T00:11:32.118Z,102917.50
2019-03-20T00:14:05.228Z,102913.78
2019-03-20T00:16:37.109Z,102916.59
2019-03-20T00:19:08.441Z,102905.53
2019-03-20T00:21:41.302Z,102908.88
2019-03-20T00:24:12.674Z,102919.39
2019-03-20T00:26:43.927Z,102915.27
2019-03-20T00:29:15.203Z,102923.69
2019-03-20T00:31:46.583Z,102925.75
2019-03-20T00:34:18.239Z,102921.19
2019-03-20T00:36:49.444Z,102920.08
2019-03-20T00:39:20.683Z,102922.30
2019-03-20T00:41:51.896Z,102928.06
2019-03-20T00:44:31.233Z,102924.82
2019-03-20T00:47:02.822Z,102922.30
2019-03-20T00:49:34.108Z,102929.37
2019-03-20T00:52:05.315Z,102930.58
2019-03-20T00:54:39.362Z,102939.85
2019-03-20T00:57:10.655Z,102941.67
2019-03-20T00:59:42.160Z,102950.73
2019-03-20T01:02:13.433Z,102951.05
2019-03-20T01:04:44.651Z,102947.84
2019-03-20T01:07:17.234Z,102939.75
2019-03-20T01:09:50.028Z,102932.53
2019-03-20T01:12:22.708Z,102937.73
2019-03-20T01:14:54.179Z,102935.88
2019-03-20T01:17:25.454Z,102939.98
2019-03-20T01:19:56.773Z,102943.89
2019-03-20T01:22:29.183Z,102936.05
2019-03-20T01:25:00.548Z,102936.05
2019-03-20T01:27:31.792Z,102938.94
2019-03-20T01:30:03.161Z,102939.52
2019-03-20T01:32:34.713Z,102946.16
2019-03-20T01:35:07.783Z,102944.84
2019-03-20T01:37:39.072Z,102945.80
2019-03-20T01:40:10.337Z,102951.89
2019-03-20T01:42:41.910Z,102947.02
2019-03-20T01:45:13.416Z,102934.17
2019-03-20T01:47:44.694Z,102935.44
2019-03-20T01:50:16.515Z,102939.88
2019-03-20T01:52:48.119Z,102943.58
2019-03-20T01:55:19.374Z,102937.78
2019-03-20T01:57:50.952Z,102943.72
2019-03-20T02:00:22.319Z,102960.86
2019-03-20T02:02:53.775Z,102949.28
2019-03-20T02:05:35.078Z,102944.85
2019-03-20T02:08:03.561Z,102944.31
2019-03-20T02:10:34.843Z,102944.23
2019-03-20T02:13:06.070Z,102934.39
2019-03-20T02:15:39.513Z,102935.78
2019-03-20T02:18:11.023Z,102935.35
2019-03-20T02:20:42.319Z,102928.02
2019-03-20T02:23:13.514Z,102924.29
2019-03-20T02:25:44.816Z,102913.33
2019-03-20T02:28:16.173Z,102909.47
2019-03-20T02:30:47.403Z,102900.86
2019-03-20T02:33:18.523Z,102898.47
2019-03-20T02:35:51.713Z,102905.27
2019-03-20T02:38:22.636Z,102886.92
2019-03-20T02:40:53.871Z,102883.90
2019-03-20T02:43:24.986Z,102886.06
2019-03-20T02:45:57.070Z,102881.34
2019-03-20T02:48:29.374Z,102879.09
2019-03-20T02:51:00.632Z,102872.03
2019-03-20T02:53:33.385Z,102867.25
2019-03-20T02:56:04.745Z,102867.69
2019-03-20T02:58:36.090Z,102866.77
2019-03-20T03:01:07.643Z,102863.18
2019-03-20T03:03:38.894Z,102867.34
2019-03-20T03:06:10.515Z,102863.58
2019-03-20T03:08:42.070Z,102858.05
2019-03-20T03:11:13.714Z,102861.90
2019-03-20T03:13:44.872Z,102863.64
2019-03-20T03:16:16.091Z,102855.22
2019-03-20T03:18:47.233Z,102854.24
2019-03-20T03:21:18.378Z,102861.48
2019-03-20T03:23:50.288Z,102856.59
2019-03-20T03:26:21.438Z,102856.13
2019-03-20T03:28:53.007Z,102852.65
2019-03-20T03:31:24.455Z,102852.76
2019-03-20T03:33:55.974Z,102849.23
2019-03-20T03:36:27.171Z,102846.09
2019-03-20T03:38:58.398Z,102840.66
2019-03-20T03:41:30.089Z,102842.90
2019-03-20T03:44:01.348Z,102854.04
2019-03-20T03:46:32.549Z,102843.47
2019-03-20T03:49:05.053Z,102846.48
2019-03-20T03:51:36.227Z,102850.94
2019-03-20T03:54:07.402Z,102847.06
2019-03-20T03:56:38.736Z,102853.66
2019-03-20T03:59:10.499Z,102845.23
2019-03-20T04:01:41.771Z,102837.87
2019-03-20T04:04:12.973Z,102833.38
2019-03-20T04:06:44.297Z,102832.08
2019-03-20T04:09:15.492Z,102833.47
2019-03-20T04:11:46.763Z,102831.13
2019-03-20T04:14:18.017Z,102834.65
2019-03-20T04:16:49.872Z,102838.61
2019-03-20T04:19:21.085Z,102839.23
2019-03-20T04:21:52.220Z,102838.20
2019-03-20T04:24:23.434Z,102841.19
2019-03-20T04:26:54.654Z,102841.74
2019-03-20T04:29:25.904Z,102837.75
2019-03-20T04:31:57.958Z,102842.77
2019-03-20T04:34:30.965Z,102835.50
2019-03-20T04:37:03.202Z,102835.12
2019-03-20T04:39:35.472Z,102838.77
2019-03-20T04:42:06.675Z,102831.95
2019-03-20T04:44:39.912Z,102843.94
2019-03-20T04:47:11.092Z,102849.72
2019-03-20T04:49:43.750Z,102836.35
2019-03-20T04:52:14.973Z,102845.23
2019-03-20T04:54:46.160Z,102842.20
2019-03-20T04:57:18.437Z,102841.81
2019-03-20T04:59:49.950Z,102839.19
2019-03-20T05:02:21.574Z,102836.59
2019-03-20T05:04:52.891Z,102831.98
2019-03-20T05:07:24.074Z,102833.37
2019-03-20T05:09:55.434Z,102830.27
2019-03-20T05:12:27.527Z,102825.91
2019-03-20T05:14:58.820Z,102824.95
2019-03-20T05:17:29.997Z,102815.20
2019-03-20T05:20:01.186Z,102821.55
2019-03-20T05:22:32.384Z,102834.42
2019-03-20T05:25:03.532Z,102829.56
2019-03-20T05:27:35.130Z,102831.70
2019-03-20T05:30:06.962Z,102827.85
2019-03-20T05:32:38.194Z,102826.47
2019-03-20T05:35:10.469Z,102829.56
2019-03-20T05:37:41.887Z,102836.66
2019-03-20T05:40:13.591Z,102833.09
2019-03-20T05:42:45.365Z,102845.12
2019-03-20T05:45:16.821Z,102836.20
2019-03-20T05:47:48.488Z,102838.39
2019-03-20T05:50:19.803Z,102838.42
2019-03-20T05:52:51.025Z,102838.48
2019-03-20T05:55:22.359Z,102841.59
2019-03-20T05:57:53.640Z,102839.12
2019-03-20T06:00:32.424Z,102844.33
2019-03-20T06:03:03.669Z,102830.66
2019-03-20T06:05:34.887Z,102829.80
2019-03-20T06:08:06.180Z,102826.29
2019-03-20T06:10:37.587Z,102830.20
2019-03-20T06:13:09.907Z,102830.22
2019-03-20T06:15:41.140Z,102836.50
2019-03-20T06:18:12.763Z,102839.17
2019-03-20T06:20:44.000Z,102838.30
2019-03-20T06:23:17.830Z,102842.00
2019-03-20T06:25:51.337Z,102845.92
2019-03-20T06:28:22.368Z,102848.17
2019-03-20T06:30:53.704Z,102842.91
2019-03-20T06:33:24.870Z,102847.72
2019-03-20T06:35:56.944Z,102852.22
2019-03-20T06:38:29.516Z,102855.80
2019-03-20T06:41:04.868Z,102850.48
2019-03-20T06:43:37.380Z,102843.42
2019-03-20T06:46:08.539Z,102842.45
2019-03-20T06:48:39.944Z,102846.55
2019-03-20T06:51:14.337Z,102840.31
2019-03-20T06:53:45.649Z,102851.41
2019-03-20T06:56:16.932Z,102843.06
2019-03-20T06:58:50.231Z,102834.66
2019-03-20T07:01:27.172Z,102839.98
2019-03-20T07:04:42.515Z,102820.02
2019-03-20T07:07:43.554Z,102772.58
2019-03-20T07:10:14.421Z,102733.55
2019-03-20T07:12:45.723Z,102543.23
2019-03-20T07:15:16.963Z,102536.58
2019-03-20T07:17:48.408Z,102522.34
2019-03-20T07:20:19.841Z,102513.95
2019-03-20T07:22:51.036Z,102517.03
2019-03-20T07:25:22.454Z,102517.04
2019-03-20T07:27:54.752Z,102523.68
2019-03-20T07:30:26.118Z,102522.75
2019-03-20T07:32:57.952Z,102506.75
2019-03-20T07:35:32.011Z,102501.42
2019-03-20T07:38:03.350Z,102506.72
2019-03-20T07:40:34.557Z,102510.72
2019-03-20T07:43:09.054Z,102502.70
2019-03-20T07:45:39.119Z,102503.16
2019-03-20T07:48:21.245Z,102505.77
2019-03-20T07:50:43.273Z,102497.29
2019-03-20T07:53:15.179Z,102497.23
2019-03-20T07:55:46.443Z,102497.19
2019-03-20T07:58:17.756Z,102505.17
2019-03-20T08:00:48.999Z,102503.92
2019-03-20T08:03:20.262Z,102498.61
2019-03-20T08:05:51.451Z,102498.97
2019-03-20T08:08:24.617Z,102498.58
2019-03-20T08:10:56.872Z,102502.07
2019-03-20T08:13:28.219Z,102501.09
2019-03-20T08:15:59.971Z,102497.42
2019-03-20T08:18:31.704Z,102487.13
2019-03-20T08:21:02.723Z,102484.23
2019-03-20T08:23:34.588Z,102490.11
2019-03-20T08:26:06.633Z,102483.44
2019-03-20T08:28:37.892Z,102481.27
2019-03-20T08:31:09.236Z,102483.00
2019-03-20T08:33:40.473Z,102483.88
2019-03-20T08:36:11.863Z,102493.17
2019-03-20T08:38:43.141Z,102494.48
2019-03-20T08:41:14.392Z,102495.39
2019-03-20T08:43:45.785Z,104178.25
2019-03-20T08:46:17.109Z,104285.41
2019-03-20T08:48:48.776Z,104337.72
2019-03-20T08:51:19.952Z,104378.05
2019-03-20T08:53:56.233Z,104440.03
2019-03-20T08:56:27.631Z,104472.53
2019-03-20T08:58:58.929Z,104496.28
2019-03-20T09:01:30.184Z,104489.37
2019-03-20T09:04:02.992Z,104498.21
2019-03-20T09:06:34.582Z,104532.79
2019-03-20T09:09:08.981Z,104577.76
2019-03-20T09:11:40.273Z,104621.05
2019-03-20T09:14:11.469Z,104643.91
2019-03-20T09:16:43.022Z,104687.33
2019-03-20T09:19:15.077Z,104693.37
2019-03-20T09:21:46.330Z,102989.33
2019-03-20T09:24:17.631Z,102928.77
2019-03-20T09:26:49.366Z,102917.16
2019-03-20T09:29:20.891Z,102900.27
2019-03-20T09:31:52.568Z,102857.51
2019-03-20T09:34:25.059Z,102842.83
2019-03-20T09:36:56.284Z,102816.11
2019-03-20T09:39:27.713Z,102784.95
2019-03-20T09:41:58.870Z,102758.09
2019-03-20T09:44:31.019Z,102729.20
2019-03-20T09:47:02.285Z,102721.07
2019-03-20T09:49:33.524Z,102693.03
2019-03-20T09:52:04.797Z,102669.77
2019-03-20T09:54:35.992Z,102636.45
2019-03-20T09:57:07.385Z,102593.09
2019-03-20T09:59:38.739Z,102569.44
2019-03-20T10:02:14.426Z,102455.06
2019-03-20T10:04:51.428Z,102286.07
2019-03-20T10:07:25.189Z,102239.03
2019-03-20T10:09:56.526Z,102165.91
2019-03-20T10:12:28.082Z,102302.11
2019-03-20T10:14:59.379Z,102290.05
2019-03-20T10:17:30.574Z,102334.16
2019-03-20T10:20:01.929Z,102418.37
2019-03-20T10:22:33.224Z,102497.90
2019-03-20T10:25:05.366Z,102616.31
2019-03-20T10:27:37.636Z,102633.72
2019-03-20T10:30:12.321Z,102641.27
2019-03-20T10:32:43.925Z,102616.85
2019-03-20T10:35:15.152Z,102608.83
2019-03-20T10:37:46.354Z,102599.51
2019-03-20T10:40:19.846Z,102624.41
2019-03-20T10:42:52.300Z,102618.19
2019-03-20T10:45:24.157Z,102656.94
2019-03-20T10:47:55.788Z,102647.48
2019-03-20T10:50:27.000Z,102715.22
2019-03-20T10:52:58.309Z,102781.59
2019-03-20T10:55:29.625Z,103114.89
2019-03-20T10:58:01.807Z,103114.40
2019-03-20T11:00:33.393Z,103210.19
2019-03-20T11:03:04.824Z,103377.73
2019-03-20T11:05:36.639Z,103957.94
2019-03-20T11:08:07.854Z,104314.51
2019-03-20T11:10:39.272Z,104438.37
2019-03-20T11:13:10.901Z,104575.62
2019-03-20T11:15:42.189Z,104743.80
2019-03-20T11:18:13.436Z,104691.63
2019-03-20T11:20:44.607Z,105258.95
2019-03-20T11:23:17.792Z,105216.75
2019-03-20T11:25:50.230Z,105229.08
2019-03-20T11:28:21.397Z,105331.64
2019-03-20T11:30:52.587Z,105255.06
2019-03-20T11:33:23.896Z,105397.53
2019-03-20T11:35:55.094Z,105550.12
2019-03-20T11:38:26.428Z,105643.67
2019-03-20T11:40:57.623Z,105698.02
2019-03-20T11:43:28.858Z,105717.98
2019-03-20T11:46:00.085Z,105810.31
2019-03-20T11:48:33.423Z,105949.35
2019-03-20T11:51:04.765Z,106007.39
2019-03-20T11:53:35.984Z,105986.36
2019-03-20T11:56:07.588Z,106024.16
2019-03-20T11:58:39.750Z,106302.31
2019-03-20T12:01:10.974Z,107027.96
2019-03-20T12:03:43.584Z,107301.29
2019-03-20T12:06:15.456Z,107102.87
2019-03-20T12:08:48.274Z,107317.56
2019-03-20T12:11:19.892Z,107459.55
2019-03-20T12:13:51.310Z,107630.98
2019-03-20T12:16:23.306Z,107446.33
2019-03-20T12:18:54.464Z,107543.34
2019-03-20T12:21:25.807Z,108003.77
2019-03-20T12:23:57.243Z,107945.81
2019-03-20T12:26:28.479Z,108359.49
2019-03-20T12:28:59.844Z,108882.52
2019-03-20T12:31:31.114Z,109939.99
2019-03-20T12:34:02.411Z,110357.02
2019-03-20T12:36:33.606Z,110775.12
2019-03-20T12:39:08.358Z,110910.63
2019-03-20T12:41:39.659Z,111000.02
2019-03-20T12:44:10.982Z,111153.20
2019-03-20T12:46:42.235Z,111426.48
2019-03-20T12:49:13.399Z,111587.68
2019-03-20T12:51:44.640Z,112009.66
2019-03-20T12:54:15.902Z,112262.39
2019-03-20T12:56:50.748Z,112493.91
2019-03-20T12:59:21.981Z,112719.13
2019-03-20T13:01:53.250Z,112952.53
2019-03-20T13:04:24.819Z,113172.86
2019-03-20T13:06:56.011Z,113274.55
2019-03-20T13:09:27.213Z,113372.19
2019-03-20T13:11:59.028Z,113483.50
2019-03-20T13:14:30.172Z,111739.11
2019-03-20T13:17:01.374Z,111856.55
2019-03-20T13:19:33.185Z,112037.42
2019-03-20T13:24:55.426Z,112512.24
2019-03-20T13:27:26.844Z,112575.19
2019-03-20T13:29:58.092Z,112719.06
2019-03-20T13:32:29.388Z,113141.36
2019-03-20T13:35:00.608Z,113110.28
2019-03-20T13:37:31.820Z,113202.33
2019-03-20T13:40:13.635Z,113369.89
2019-03-20T13:42:36.392Z,113484.00
2019-03-20T13:45:09.989Z,113453.64
2019-03-20T13:47:42.932Z,113324.03
2019-03-20T13:50:17.230Z,113270.72
2019-03-20T13:52:48.460Z,113149.03
2019-03-20T13:55:19.660Z,113090.90
2019-03-20T13:58:07.368Z,113304.00
2019-03-20T14:00:38.601Z,113376.33
2019-03-20T14:03:09.920Z,113755.00
2019-03-20T14:05:41.173Z,113489.02
2019-03-20T14:08:12.706Z,113571.73
2019-03-20T14:10:50.274Z,113486.95
2019-03-20T14:13:18.938Z,113593.38
2019-03-20T14:15:50.340Z,113575.45
2019-03-20T14:18:21.541Z,113561.89
2019-03-20T14:20:54.035Z,113568.84
2019-03-20T14:23:48.752Z,113540.08
2019-03-20T14:26:20.041Z,113574.24
2019-03-20T14:28:52.594Z,113532.95
2019-03-20T14:31:23.923Z,113599.47
2019-03-20T14:33:55.212Z,113603.29
2019-03-20T14:36:32.376Z,113606.83
2019-03-20T14:39:05.104Z,113625.34
2019-03-20T14:41:39.318Z,113630.86
2019-03-20T14:44:11.054Z,113576.92
2019-03-20T14:46:42.289Z,113516.28
2019-03-20T14:49:13.547Z,113494.30
2019-03-20T14:51:45.433Z,113445.58
2019-03-20T14:54:16.605Z,113262.02
2019-03-20T14:56:48.667Z,113015.31
2019-03-20T14:59:19.969Z,112853.68
2019-03-20T15:01:51.232Z,112745.86
2019-03-20T15:04:22.416Z,112647.78
2019-03-20T15:06:53.667Z,112549.42
2019-03-20T15:09:24.777Z,112529.55
2019-03-20T15:11:56.231Z,112378.41
2019-03-20T15:14:29.041Z,112316.49
2019-03-20T15:17:00.368Z,112235.22
2019-03-20T15:19:31.620Z,112158.33
2019-03-20T15:22:02.858Z,112113.09
2019-03-20T15:24:34.157Z,112145.70
2019-03-20T15:27:05.603Z,112097.98
2019-03-20T15:29:36.836Z,112054.45
2019-03-20T15:32:10.792Z,111999.37
2019-03-20T15:34:42.027Z,111995.39
2019-03-20T15:37:14.178Z,111924.77
2019-03-20T15:39:46.748Z,111874.33
2019-03-20T15:42:18.024Z,111853.02
2019-03-20T15:44:49.191Z,111904.61
2019-03-20T15:47:23.094Z,111899.87
2019-03-20T15:49:54.228Z,111845.25
2019-03-20T15:52:26.671Z,111803.84
2019-03-20T15:54:59.483Z,111806.92
2019-03-20T15:57:32.527Z,111727.19
2019-03-20T16:00:08.219Z,111667.38
2019-03-20T16:02:40.348Z,111705.10
2019-03-20T16:05:12.774Z,111510.35
2019-03-20T16:07:43.976Z,111477.58
2019-03-20T16:10:19.751Z,111474.13
2019-03-20T16:12:53.798Z,111438.85
2019-03-20T16:15:26.705Z,111396.30
2019-03-20T16:18:03.350Z,111293.95
2019-03-20T16:20:36.414Z,111254.20
2019-03-20T16:23:07.618Z,111205.16
2019-03-20T16:25:38.820Z,111108.14
2019-03-20T16:28:11.610Z,110988.61
2019-03-20T16:30:42.947Z,110910.23
2019-03-20T16:33:14.388Z,110884.90
2019-03-20T16:35:46.477Z,110826.27
2019-03-20T16:38:18.364Z,110787.87
2019-03-20T16:40:49.701Z,110722.99
2019-03-20T16:43:24.717Z,110690.43
2019-03-20T16:45:56.051Z,110587.36
2019-03-20T16:48:32.035Z,110469.78
2019-03-20T16:51:03.199Z,110518.60
2019-03-20T16:53:39.097Z,110452.42
2019-03-20T16:56:38.268Z,110392.27
2019-03-20T16:59:15.659Z,110376.39
2019-03-20T17:02:08.188Z,110431.97
2019-03-20T17:04:43.362Z,110462.74
2019-03-20T17:07:14.903Z,110395.22
2019-03-20T17:09:46.173Z,110354.77
2019-03-20T17:12:19.241Z,110298.21
2019-03-20T17:14:53.279Z,110305.05
2019-03-20T17:17:27.833Z,110271.29
2019-03-20T17:19:59.056Z,110234.87
2019-03-20T17:22:30.255Z,110075.41
2019-03-20T17:25:01.519Z,110031.78
2019-03-20T17:27:32.744Z,110014.43
2019-03-20T17:30:04.666Z,109990.28
2019-03-20T17:32:35.972Z,109971.59
2019-03-20T17:35:09.294Z,109939.88
2019-03-20T17:37:40.463Z,109918.02
2019-03-20T17:40:13.331Z,109901.58
2019-03-20T17:42:44.571Z,109884.55
2019-03-20T17:45:16.982Z,109862.47
2019-03-20T17:47:49.670Z,109806.55
2019-03-20T17:50:22.822Z,109769.48
2019-03-20T17:52:56.827Z,109713.53
2019-03-20T17:55:28.357Z,109677.13
2019-03-20T17:57:59.657Z,109674.36
2019-03-20T18:00:44.975Z,109680.71
2019-03-20T18:03:16.224Z,109650.77
2019-03-20T18:05:48.822Z,109630.52
2019-03-20T18:08:20.621Z,109643.52
2019-03-20T18:10:52.794Z,109627.14
2019-03-20T18:13:24.109Z,109609.24
2019-03-20T18:15:55.565Z,109603.50
2019-03-20T18:18:26.890Z,109600.27
2019-03-20T18:20:58.117Z,109608.45
2019-03-20T18:23:29.306Z,109562.30
2019-03-20T18:26:00.583Z,109581.67
2019-03-20T18:28:31.800Z,109601.20
2019-03-20T18:31:03.039Z,109592.05
2019-03-20T18:33:34.342Z,109611.55
2019-03-20T18:36:05.607Z,109633.26
2019-03-20T18:38:37.283Z,109612.10
2019-03-20T18:41:08.496Z,109651.33
2019-03-20T18:43:39.727Z,109650.71
2019-03-20T18:46:10.918Z,109761.30
2019-03-20T18:48:42.422Z,109787.72
2019-03-20T18:51:14.261Z,109890.90
2019-03-20T18:53:47.683Z,109944.43
2019-03-20T18:56:19.016Z,109973.77
2019-03-20T18:58:50.337Z,110032.11
2019-03-20T19:01:21.558Z,110053.42
2019-03-20T19:03:52.916Z,110132.27
2019-03-20T19:06:25.947Z,110186.49
2019-03-20T19:08:57.281Z,110275.43
2019-03-20T19:11:28.582Z,110294.59
2019-03-20T19:14:01.121Z,110357.69
2019-03-20T19:16:32.657Z,110467.16
2019-03-20T19:19:04.056Z,110577.11
2019-03-20T19:21:35.407Z,110666.69
2019-03-20T19:24:06.607Z,110676.34
2019-03-20T19:26:38.223Z,110708.34
2019-03-20T19:29:09.810Z,110764.40
2019-03-20T19:31:41.074Z,110793.46
2019-03-20T19:34:12.331Z,110798.13
2019-03-20T19:36:43.749Z,110871.00
2019-03-20T19:39:14.882Z,110857.25
2019-03-20T19:41:46.235Z,110891.88
2019-03-20T19:44:17.501Z,110914.88
2019-03-20T19:46:49.022Z,110950.25
2019-03-20T19:49:20.250Z,110948.73
2019-03-20T19:51:51.548Z,110986.03
2019-03-20T19:54:22.818Z,110956.55
2019-03-20T19:56:54.041Z,110932.30
2019-03-20T19:59:25.489Z,110956.64
2019-03-20T20:01:56.952Z,111009.05
2019-03-20T20:04:28.604Z,111020.20
2019-03-20T20:07:00.167Z,111063.23
2019-03-20T20:09:32.673Z,111118.77
2019-03-20T20:12:04.591Z,111105.97
2019-03-20T20:14:35.841Z,111145.00
2019-03-20T20:17:07.166Z,111225.23
2019-03-20T20:19:38.317Z,111234.23
2019-03-20T20:22:09.637Z,111280.16
2019-03-20T20:24:40.943Z,111286.48
2019-03-20T20:27:12.526Z,111328.23
2019-03-20T20:29:43.761Z,111347.73
2019-03-20T20:32:15.445Z,111340.66
2019-03-20T20:34:46.809Z,111383.91
2019-03-20T20:37:18.058Z,111586.53
2019-03-20T20:39:49.298Z,111704.17
2019-03-20T20:42:20.630Z,111731.14
2019-03-20T20:44:51.870Z,111741.39
2019-03-20T20:47:23.106Z,111852.30
2019-03-20T20:49:57.007Z,111925.42
2019-03-20T20:52:28.291Z,112024.55
2019-03-20T20:54:59.549Z,112158.83
2019-03-20T20:57:30.673Z,112253.33
2019-03-20T21:00:02.832Z,112342.33
2019-03-20T21:02:34.432Z,112431.78
2019-03-20T21:05:06.039Z,112534.46
2019-03-20T21:07:37.301Z,112487.47
2019-03-20T21:10:09.066Z,112601.38
2019-03-20T21:12:42.547Z,112706.66
2019-03-20T21:15:34.389Z,112735.47
2019-03-20T21:18:57.539Z,112640.73
2019-03-20T21:21:35.208Z,112758.81
2019-03-20T21:24:26.676Z,112964.21
2019-03-20T21:27:41.206Z,113090.89
2019-03-20T21:30:47.578Z,113361.22
2019-03-20T21:33:53.277Z,113570.91
2019-03-20T21:37:12.859Z,113703.50
2019-03-20T21:39:44.860Z,113890.49
2019-03-20T21:43:06.802Z,114085.35
2019-03-20T21:46:10.254Z,114145.03
2019-03-20T21:48:42.371Z,114342.52
2019-03-20T21:51:20.373Z,114469.46
2019-03-20T21:54:39.392Z,114497.86
2019-03-20T21:57:34.563Z,114598.20
2019-03-20T22:00:27.264Z,114648.52
2019-03-20T22:02:59.083Z,114683.54
2019-03-20T22:06:15.091Z,114748.39
2019-03-20T22:08:47.087Z,114772.95
2019-03-20T22:11:45.262Z,114810.14
2019-03-20T22:14:17.173Z,114842.62
2019-03-20T22:17:32.466Z,114725.30
2019-03-20T22:20:46.852Z,114723.59
2019-03-20T22:23:43.800Z,114752.35
2019-03-20T22:26:56.319Z,114694.03
2019-03-20T22:29:28.982Z,115006.42
2019-03-20T22:32:50.182Z,114908.31
2019-03-20T22:35:49.943Z,114864.77
2019-03-20T22:39:23.809Z,114761.55
2019-03-20T22:42:18.491Z,114801.30
2019-03-20T22:45:16.137Z,114797.55
2019-03-20T22:48:37.207Z,114780.32
2019-03-20T22:51:35.180Z,114824.91
2019-03-20T22:54:41.822Z,114732.67
2019-03-20T22:57:31.404Z,114659.88
2019-03-20T23:00:03.474Z,114599.98
2019-03-20T23:02:42.378Z,114623.36
2019-03-20T23:05:14.259Z,114633.22
2019-03-20T23:07:46.078Z,114613.38
2019-03-20T23:10:17.812Z,114631.02
2019-03-20T23:12:50.177Z,114625.66
2019-03-20T23:15:22.085Z,114585.48
2019-03-20T23:17:53.962Z,114884.54
2019-03-20T23:20:26.364Z,115066.23
2019-03-20T23:22:58.155Z,115132.19
2019-03-20T23:25:29.965Z,115206.81
2019-03-20T23:28:02.045Z,115231.40
2019-03-20T23:30:34.020Z,115257.02
2019-03-20T23:33:06.848Z,115294.86
2019-03-20T23:35:38.707Z,115233.59
2019-03-20T23:38:10.811Z,115292.25
2019-03-20T23:40:42.600Z,115344.28
2019-03-20T23:43:14.390Z,115381.77
2019-03-20T23:48:46.074Z,115356.98
2019-03-20T23:51:19.298Z,115807.92
2019-03-20T23:53:53.318Z,115730.48
2019-03-20T23:56:26.334Z,115883.25
2019-03-20T23:58:58.437Z,115922.09
